The Tuesday night ride

This was on the hard side, but it had some super down-hills.
Before you get to the GPX, I’ve made a visualisation of the route in 3D. Naturally, the vertical scale is exaggerated compared to the others.

Image and video hosting by TinyPic

The GPX:
——————————————————————————————————————-
<?xml version="1.0" encoding="UTF-8" standalone="yes"?>
<gpx version="1.1" creator="GPS Utility 4.20 – http://www.gpsu.co.uk&#34;
xmlns="http://www.topografix.com/GPX/1/1&#34;
xmlns:xsi="http://www.w3.org/2001/XMLSchema-instance&#34;
xsi:schemaLocation="http://www.topografix.com/GPX/1/1 http://www.topografix.com/GPX/1/1/gpx.xsd"&#62;

<trk>
<trkseg>
<trkpt lat="54.433570" lon="-2.964553"><ele>61</ele><time>2009-10-13T17:18:42Z</time></trkpt>
<trkpt lat="54.433630" lon="-2.963707"><ele>52</ele><time>2009-10-13T17:25:11Z</time></trkpt>
<trkpt lat="54.433049" lon="-2.963369"><ele>50</ele><time>2009-10-13T17:25:41Z</time></trkpt>
<trkpt lat="54.433153" lon="-2.963865"><ele>35</ele><time>2009-10-13T17:29:45Z</time></trkpt>
<trkpt lat="54.432618" lon="-2.963251"><ele>60</ele><time>2009-10-13T17:40:48Z</time></trkpt>
<trkpt lat="54.431954" lon="-2.964253"><ele>59</ele><time>2009-10-13T17:41:16Z</time></trkpt>
<trkpt lat="54.431164" lon="-2.965298"><ele>59</ele><time>2009-10-13T17:41:41Z</time></trkpt>
<trkpt lat="54.431518" lon="-2.969299"><ele>52</ele><time>2009-10-13T17:42:23Z</time></trkpt>
<trkpt lat="54.431983" lon="-2.970729"><ele>53</ele><time>2009-10-13T17:42:43Z</time></trkpt>
<trkpt lat="54.431936" lon="-2.972069"><ele>53</ele><time>2009-10-13T17:43:11Z</time></trkpt>
<trkpt lat="54.431732" lon="-2.972896"><ele>61</ele><time>2009-10-13T17:43:53Z</time></trkpt>
<trkpt lat="54.431647" lon="-2.974482"><ele>71</ele><time>2009-10-13T17:45:02Z</time></trkpt>
<trkpt lat="54.431853" lon="-2.975674"><ele>92</ele><time>2009-10-13T17:45:49Z</time></trkpt>
<trkpt lat="54.431649" lon="-2.976471"><ele>106</ele><time>2009-10-13T17:46:38Z</time></trkpt>
<trkpt lat="54.432386" lon="-2.977645"><ele>122</ele><time>2009-10-13T17:47:37Z</time></trkpt>
<trkpt lat="54.432234" lon="-2.979784"><ele>129</ele><time>2009-10-13T17:48:37Z</time></trkpt>
<trkpt lat="54.431948" lon="-2.981781"><ele>147</ele><time>2009-10-13T17:49:41Z</time></trkpt>
<trkpt lat="54.432234" lon="-2.983037"><ele>157</ele><time>2009-10-13T17:50:24Z</time></trkpt>
<trkpt lat="54.432317" lon="-2.983902"><ele>161</ele><time>2009-10-13T17:50:51Z</time></trkpt>
<trkpt lat="54.432162" lon="-2.985240"><ele>169</ele><time>2009-10-13T17:52:07Z</time></trkpt>
<trkpt lat="54.432567" lon="-2.986344"><ele>176</ele><time>2009-10-13T17:52:40Z</time></trkpt>
<trkpt lat="54.432152" lon="-2.987583"><ele>181</ele><time>2009-10-13T17:53:23Z</time></trkpt>
<trkpt lat="54.431729" lon="-2.988744"><ele>188</ele><time>2009-10-13T17:54:00Z</time></trkpt>
<trkpt lat="54.431300" lon="-2.989612"><ele>197</ele><time>2009-10-13T17:54:35Z</time></trkpt>
<trkpt lat="54.431114" lon="-2.990317"><ele>193</ele><time>2009-10-13T17:56:20Z</time></trkpt>
<trkpt lat="54.430837" lon="-2.991266"><ele>201</ele><time>2009-10-13T17:57:03Z</time></trkpt>
<trkpt lat="54.430485" lon="-2.992460"><ele>200</ele><time>2009-10-13T17:57:36Z</time></trkpt>
<trkpt lat="54.431199" lon="-2.993109"><ele>199</ele><time>2009-10-13T17:58:01Z</time></trkpt>
<trkpt lat="54.431868" lon="-2.992617"><ele>202</ele><time>2009-10-13T17:58:28Z</time></trkpt>
<trkpt lat="54.432537" lon="-2.993265"><ele>207</ele><time>2009-10-13T17:59:04Z</time></trkpt>
<trkpt lat="54.433330" lon="-2.992961"><ele>209</ele><time>2009-10-13T18:00:31Z</time></trkpt>
<trkpt lat="54.434347" lon="-2.992846"><ele>223</ele><time>2009-10-13T18:02:22Z</time></trkpt>
<trkpt lat="54.435088" lon="-2.992386"><ele>231</ele><time>2009-10-13T18:03:41Z</time></trkpt>
<trkpt lat="54.436232" lon="-2.992059"><ele>223</ele><time>2009-10-13T18:05:38Z</time></trkpt>
<trkpt lat="54.437347" lon="-2.992009"><ele>217</ele><time>2009-10-13T18:06:33Z</time></trkpt>
<trkpt lat="54.438913" lon="-2.992818"><ele>202</ele><time>2009-10-13T18:07:12Z</time></trkpt>
<trkpt lat="54.439869" lon="-2.992456"><ele>188</ele><time>2009-10-13T18:07:41Z</time></trkpt>
<trkpt lat="54.440414" lon="-2.992762"><ele>184</ele><time>2009-10-13T18:08:34Z</time></trkpt>
<trkpt lat="54.441068" lon="-2.993086"><ele>170</ele><time>2009-10-13T18:09:15Z</time></trkpt>
<trkpt lat="54.441868" lon="-2.992982"><ele>159</ele><time>2009-10-13T18:09:43Z</time></trkpt>
<trkpt lat="54.442582" lon="-2.993647"><ele>147</ele><time>2009-10-13T18:10:09Z</time></trkpt>
<trkpt lat="54.443096" lon="-2.994523"><ele>137</ele><time>2009-10-13T18:11:15Z</time></trkpt>
<trkpt lat="54.443566" lon="-2.995321"><ele>113</ele><time>2009-10-13T18:13:27Z</time></trkpt>
<trkpt lat="54.443433" lon="-2.996212"><ele>119</ele><time>2009-10-13T18:14:24Z</time></trkpt>
<trkpt lat="54.443765" lon="-2.997284"><ele>126</ele><time>2009-10-13T18:15:06Z</time></trkpt>
<trkpt lat="54.443469" lon="-2.999420"><ele>113</ele><time>2009-10-13T18:15:47Z</time></trkpt>
<trkpt lat="54.443230" lon="-3.001157"><ele>115</ele><time>2009-10-13T18:16:11Z</time></trkpt>
<trkpt lat="54.443801" lon="-3.003839"><ele>114</ele><time>2009-10-13T18:16:44Z</time></trkpt>
<trkpt lat="54.443783" lon="-3.004887"><ele>114</ele><time>2009-10-13T18:17:02Z</time></trkpt>
<trkpt lat="54.443731" lon="-3.005765"><ele>119</ele><time>2009-10-13T18:18:04Z</time></trkpt>
<trkpt lat="54.444164" lon="-3.006623"><ele>122</ele><time>2009-10-13T18:18:36Z</time></trkpt>
<trkpt lat="54.444365" lon="-3.007399"><ele>125</ele><time>2009-10-13T18:19:12Z</time></trkpt>
<trkpt lat="54.444151" lon="-3.009337"><ele>120</ele><time>2009-10-13T18:20:01Z</time></trkpt>
<trkpt lat="54.443571" lon="-3.010927"><ele>126</ele><time>2009-10-13T18:20:32Z</time></trkpt>
<trkpt lat="54.443284" lon="-3.011922"><ele>128</ele><time>2009-10-13T18:20:55Z</time></trkpt>
<trkpt lat="54.442854" lon="-3.012806"><ele>138</ele><time>2009-10-13T18:22:16Z</time></trkpt>
<trkpt lat="54.442480" lon="-3.014631"><ele>146</ele><time>2009-10-13T18:23:09Z</time></trkpt>
<trkpt lat="54.442364" lon="-3.015569"><ele>145</ele><time>2009-10-13T18:23:35Z</time></trkpt>
<trkpt lat="54.442482" lon="-3.016513"><ele>149</ele><time>2009-10-13T18:25:14Z</time></trkpt>
<trkpt lat="54.442130" lon="-3.017769"><ele>161</ele><time>2009-10-13T18:25:57Z</time></trkpt>
<trkpt lat="54.442764" lon="-3.019280"><ele>164</ele><time>2009-10-13T18:27:15Z</time></trkpt>
<trkpt lat="54.443415" lon="-3.020900"><ele>158</ele><time>2009-10-13T18:27:44Z</time></trkpt>
<trkpt lat="54.443921" lon="-3.021714"><ele>161</ele><time>2009-10-13T18:28:01Z</time></trkpt>
<trkpt lat="54.444520" lon="-3.023148"><ele>163</ele><time>2009-10-13T18:28:23Z</time></trkpt>
<trkpt lat="54.444830" lon="-3.024667"><ele>158</ele><time>2009-10-13T18:28:47Z</time></trkpt>
<trkpt lat="54.444354" lon="-3.024655"><ele>163</ele><time>2009-10-13T18:31:53Z</time></trkpt>
<trkpt lat="54.443420" lon="-3.024555"><ele>173</ele><time>2009-10-13T18:33:09Z</time></trkpt>
<trkpt lat="54.442666" lon="-3.024490"><ele>183</ele><time>2009-10-13T18:34:34Z</time></trkpt>
<trkpt lat="54.442233" lon="-3.024633"><ele>188</ele><time>2009-10-13T18:35:22Z</time></trkpt>
<trkpt lat="54.441313" lon="-3.025073"><ele>194</ele><time>2009-10-13T18:38:57Z</time></trkpt>
<trkpt lat="54.440453" lon="-3.025776"><ele>182</ele><time>2009-10-13T18:39:30Z</time></trkpt>
<trkpt lat="54.439804" lon="-3.027086"><ele>167</ele><time>2009-10-13T18:40:24Z</time></trkpt>
<trkpt lat="54.439285" lon="-3.027798"><ele>147</ele><time>2009-10-13T18:41:38Z</time></trkpt>
<trkpt lat="54.439068" lon="-3.030105"><ele>126</ele><time>2009-10-13T18:45:56Z</time></trkpt>
<trkpt lat="54.438601" lon="-3.031126"><ele>115</ele><time>2009-10-13T18:46:32Z</time></trkpt>
<trkpt lat="54.437987" lon="-3.032483"><ele>97</ele><time>2009-10-13T18:47:12Z</time></trkpt>
<trkpt lat="54.438363" lon="-3.034759"><ele>101</ele><time>2009-10-13T18:48:29Z</time></trkpt>
<trkpt lat="54.438619" lon="-3.036338"><ele>94</ele><time>2009-10-13T18:48:54Z</time></trkpt>
<trkpt lat="54.439302" lon="-3.037373"><ele>84</ele><time>2009-10-13T18:49:19Z</time></trkpt>
<trkpt lat="54.440350" lon="-3.040962"><ele>85</ele><time>2009-10-13T18:50:05Z</time></trkpt>
<trkpt lat="54.441047" lon="-3.042521"><ele>87</ele><time>2009-10-13T18:50:23Z</time></trkpt>
<trkpt lat="54.441068" lon="-3.044203"><ele>89</ele><time>2009-10-13T18:50:42Z</time></trkpt>
<trkpt lat="54.440049" lon="-3.048710"><ele>80</ele><time>2009-10-13T18:51:24Z</time></trkpt>
<trkpt lat="54.439718" lon="-3.051724"><ele>75</ele><time>2009-10-13T18:51:51Z</time></trkpt>
<trkpt lat="54.439467" lon="-3.054755"><ele>83</ele><time>2009-10-13T18:52:23Z</time></trkpt>
<trkpt lat="54.440365" lon="-3.055796"><ele>88</ele><time>2009-10-13T18:52:50Z</time></trkpt>
<trkpt lat="54.441437" lon="-3.056517"><ele>95</ele><time>2009-10-13T18:53:29Z</time></trkpt>
<trkpt lat="54.442412" lon="-3.058100"><ele>91</ele><time>2009-10-13T18:53:57Z</time></trkpt>
<trkpt lat="54.444985" lon="-3.059862"><ele>93</ele><time>2009-10-13T18:54:43Z</time></trkpt>
<trkpt lat="54.446462" lon="-3.062568"><ele>84</ele><time>2009-10-13T18:55:30Z</time></trkpt>
<trkpt lat="54.445321" lon="-3.063603"><ele>76</ele><time>2009-10-13T18:55:54Z</time></trkpt>
<trkpt lat="54.444100" lon="-3.064512"><ele>82</ele><time>2009-10-13T18:57:35Z</time></trkpt>
<trkpt lat="54.443320" lon="-3.065278"><ele>80</ele><time>2009-10-13T18:58:00Z</time></trkpt>
<trkpt lat="54.442704" lon="-3.066866"><ele>83</ele><time>2009-10-13T18:58:27Z</time></trkpt>
<trkpt lat="54.442313" lon="-3.068352"><ele>82</ele><time>2009-10-13T18:59:00Z</time></trkpt>
<trkpt lat="54.441751" lon="-3.068938"><ele>83</ele><time>2009-10-13T18:59:42Z</time></trkpt>
<trkpt lat="54.441133" lon="-3.068660"><ele>81</ele><time>2009-10-13T19:00:16Z</time></trkpt>
<trkpt lat="54.440550" lon="-3.068568"><ele>84</ele><time>2009-10-13T19:00:59Z</time></trkpt>
<trkpt lat="54.439754" lon="-3.067021"><ele>77</ele><time>2009-10-13T19:01:30Z</time></trkpt>
<trkpt lat="54.438733" lon="-3.066624"><ele>83</ele><time>2009-10-13T19:02:10Z</time></trkpt>
<trkpt lat="54.437787" lon="-3.065921"><ele>83</ele><time>2009-10-13T19:02:46Z</time></trkpt>
<trkpt lat="54.436932" lon="-3.065051"><ele>84</ele><time>2009-10-13T19:03:11Z</time></trkpt>
<trkpt lat="54.436367" lon="-3.063880"><ele>93</ele><time>2009-10-13T19:03:36Z</time></trkpt>
<trkpt lat="54.435613" lon="-3.061717"><ele>77</ele><time>2009-10-13T19:04:04Z</time></trkpt>
<trkpt lat="54.435354" lon="-3.060446"><ele>79</ele><time>2009-10-13T19:04:23Z</time></trkpt>
<trkpt lat="54.434119" lon="-3.057793"><ele>91</ele><time>2009-10-13T19:06:36Z</time></trkpt>
<trkpt lat="54.433137" lon="-3.056072"><ele>97</ele><time>2009-10-13T19:07:46Z</time></trkpt>
<trkpt lat="54.432299" lon="-3.053183"><ele>103</ele><time>2009-10-13T19:08:30Z</time></trkpt>
<trkpt lat="54.431671" lon="-3.050993"><ele>108</ele><time>2009-10-13T19:09:04Z</time></trkpt>
<trkpt lat="54.431914" lon="-3.048857"><ele>103</ele><time>2009-10-13T19:09:28Z</time></trkpt>
<trkpt lat="54.431137" lon="-3.048282"><ele>139</ele><time>2009-10-13T19:12:14Z</time></trkpt>
<trkpt lat="54.430713" lon="-3.048549"><ele>152</ele><time>2009-10-13T19:13:37Z</time></trkpt>
<trkpt lat="54.430270" lon="-3.048753"><ele>162</ele><time>2009-10-13T19:15:03Z</time></trkpt>
<trkpt lat="54.429738" lon="-3.049063"><ele>168</ele><time>2009-10-13T19:16:28Z</time></trkpt>
<trkpt lat="54.428937" lon="-3.048118"><ele>158</ele><time>2009-10-13T19:17:02Z</time></trkpt>
<trkpt lat="54.428247" lon="-3.047854"><ele>152</ele><time>2009-10-13T19:17:31Z</time></trkpt>
<trkpt lat="54.427786" lon="-3.048119"><ele>159</ele><time>2009-10-13T19:21:16Z</time></trkpt>
<trkpt lat="54.427188" lon="-3.048767"><ele>166</ele><time>2009-10-13T19:21:47Z</time></trkpt>
<trkpt lat="54.426382" lon="-3.050488"><ele>170</ele><time>2009-10-13T19:22:27Z</time></trkpt>
<trkpt lat="54.425966" lon="-3.051818"><ele>171</ele><time>2009-10-13T19:22:47Z</time></trkpt>
<trkpt lat="54.425313" lon="-3.053528"><ele>166</ele><time>2009-10-13T19:23:10Z</time></trkpt>
<trkpt lat="54.424335" lon="-3.056401"><ele>159</ele><time>2009-10-13T19:23:39Z</time></trkpt>
<trkpt lat="54.423283" lon="-3.058532"><ele>152</ele><time>2009-10-13T19:23:57Z</time></trkpt>
<trkpt lat="54.422199" lon="-3.059151"><ele>143</ele><time>2009-10-13T19:24:11Z</time></trkpt>
<trkpt lat="54.421699" lon="-3.056657"><ele>135</ele><time>2009-10-13T19:24:35Z</time></trkpt>
<trkpt lat="54.420517" lon="-3.056241"><ele>118</ele><time>2009-10-13T19:24:51Z</time></trkpt>
<trkpt lat="54.418988" lon="-3.057373"><ele>118</ele><time>2009-10-13T19:25:15Z</time></trkpt>
<trkpt lat="54.417815" lon="-3.055786"><ele>106</ele><time>2009-10-13T19:25:38Z</time></trkpt>
<trkpt lat="54.417070" lon="-3.055690"><ele>105</ele><time>2009-10-13T19:26:06Z</time></trkpt>
<trkpt lat="54.416531" lon="-3.055676"><ele>118</ele><time>2009-10-13T19:27:29Z</time></trkpt>
<trkpt lat="54.415402" lon="-3.056356"><ele>126</ele><time>2009-10-13T19:28:15Z</time></trkpt>
<trkpt lat="54.414571" lon="-3.055749"><ele>127</ele><time>2009-10-13T19:28:40Z</time></trkpt>
<trkpt lat="54.413680" lon="-3.055849"><ele>135</ele><time>2009-10-13T19:29:11Z</time></trkpt>
<trkpt lat="54.412518" lon="-3.056205"><ele>142</ele><time>2009-10-13T19:29:40Z</time></trkpt>
<trkpt lat="54.411548" lon="-3.057166"><ele>141</ele><time>2009-10-13T19:30:09Z</time></trkpt>
<trkpt lat="54.410132" lon="-3.058747"><ele>134</ele><time>2009-10-13T19:31:14Z</time></trkpt>
<trkpt lat="54.409454" lon="-3.059223"><ele>137</ele><time>2009-10-13T19:31:40Z</time></trkpt>
<trkpt lat="54.408496" lon="-3.058721"><ele>132</ele><time>2009-10-13T19:35:00Z</time></trkpt>
<trkpt lat="54.407833" lon="-3.057440"><ele>137</ele><time>2009-10-13T19:35:49Z</time></trkpt>
<trkpt lat="54.407651" lon="-3.056681"><ele>147</ele><time>2009-10-13T19:36:49Z</time></trkpt>
<trkpt lat="54.407371" lon="-3.055872"><ele>152</ele><time>2009-10-13T19:37:27Z</time></trkpt>
<trkpt lat="54.407767" lon="-3.054788"><ele>155</ele><time>2009-10-13T19:38:01Z</time></trkpt>
<trkpt lat="54.407651" lon="-3.053661"><ele>159</ele><time>2009-10-13T19:38:33Z</time></trkpt>
<trkpt lat="54.407929" lon="-3.052666"><ele>165</ele><time>2009-10-13T19:39:08Z</time></trkpt>
<trkpt lat="54.408200" lon="-3.051518"><ele>167</ele><time>2009-10-13T19:39:55Z</time></trkpt>
<trkpt lat="54.408171" lon="-3.050731"><ele>181</ele><time>2009-10-13T19:45:05Z</time></trkpt>
<trkpt lat="54.407032" lon="-3.051411"><ele>175</ele><time>2009-10-13T19:45:40Z</time></trkpt>
<trkpt lat="54.406298" lon="-3.052070"><ele>183</ele><time>2009-10-13T19:46:12Z</time></trkpt>
<trkpt lat="54.405938" lon="-3.053232"><ele>184</ele><time>2009-10-13T19:46:43Z</time></trkpt>
<trkpt lat="54.405212" lon="-3.053983"><ele>182</ele><time>2009-10-13T19:47:11Z</time></trkpt>
<trkpt lat="54.404246" lon="-3.054529"><ele>190</ele><time>2009-10-13T19:48:17Z</time></trkpt>
<trkpt lat="54.403521" lon="-3.054156"><ele>194</ele><time>2009-10-13T19:49:09Z</time></trkpt>
<trkpt lat="54.403236" lon="-3.054857"><ele>203</ele><time>2009-10-13T19:49:54Z</time></trkpt>
<trkpt lat="54.402468" lon="-3.056362"><ele>199</ele><time>2009-10-13T19:50:30Z</time></trkpt>
<trkpt lat="54.402403" lon="-3.057639"><ele>212</ele><time>2009-10-13T19:50:59Z</time></trkpt>
<trkpt lat="54.401919" lon="-3.059568"><ele>209</ele><time>2009-10-13T19:53:14Z</time></trkpt>
<trkpt lat="54.400637" lon="-3.062231"><ele>185</ele><time>2009-10-13T19:58:59Z</time></trkpt>
<trkpt lat="54.399516" lon="-3.063034"><ele>185</ele><time>2009-10-13T19:59:24Z</time></trkpt>
<trkpt lat="54.397837" lon="-3.064792"><ele>183</ele><time>2009-10-13T20:00:09Z</time></trkpt>
<trkpt lat="54.397002" lon="-3.065757"><ele>167</ele><time>2009-10-13T20:01:12Z</time></trkpt>
<trkpt lat="54.395313" lon="-3.065697"><ele>167</ele><time>2009-10-13T20:01:35Z</time></trkpt>
<trkpt lat="54.393014" lon="-3.063466"><ele>119</ele><time>2009-10-13T20:02:04Z</time></trkpt>
<trkpt lat="54.391915" lon="-3.061697"><ele>120</ele><time>2009-10-13T20:02:21Z</time></trkpt>
<trkpt lat="54.390497" lon="-3.058303"><ele>96</ele><time>2009-10-13T20:02:47Z</time></trkpt>
<trkpt lat="54.389829" lon="-3.057639"><ele>93</ele><time>2009-10-13T20:03:05Z</time></trkpt>
<trkpt lat="54.390636" lon="-3.054826"><ele>87</ele><time>2009-10-13T20:04:15Z</time></trkpt>
<trkpt lat="54.390398" lon="-3.053234"><ele>95</ele><time>2009-10-13T20:04:42Z</time></trkpt>
<trkpt lat="54.390786" lon="-3.052074"><ele>96</ele><time>2009-10-13T20:05:16Z</time></trkpt>
<trkpt lat="54.390833" lon="-3.050796"><ele>102</ele><time>2009-10-13T20:05:48Z</time></trkpt>
<trkpt lat="54.390385" lon="-3.049553"><ele>108</ele><time>2009-10-13T20:06:17Z</time></trkpt>
<trkpt lat="54.389599" lon="-3.048963"><ele>109</ele><time>2009-10-13T20:06:43Z</time></trkpt>
<trkpt lat="54.389847" lon="-3.047322"><ele>107</ele><time>2009-10-13T20:08:01Z</time></trkpt>
<trkpt lat="54.389262" lon="-3.046352"><ele>99</ele><time>2009-10-13T20:08:40Z</time></trkpt>
<trkpt lat="54.388880" lon="-3.045895"><ele>102</ele><time>2009-10-13T20:09:32Z</time></trkpt>
<trkpt lat="54.387770" lon="-3.045421"><ele>107</ele><time>2009-10-13T20:10:29Z</time></trkpt>
<trkpt lat="54.386846" lon="-3.045212"><ele>121</ele><time>2009-10-13T20:11:30Z</time></trkpt>
<trkpt lat="54.386070" lon="-3.045547"><ele>137</ele><time>2009-10-13T20:12:41Z</time></trkpt>
<trkpt lat="54.385432" lon="-3.045515"><ele>148</ele><time>2009-10-13T20:13:58Z</time></trkpt>
<trkpt lat="54.386567" lon="-3.044220"><ele>159</ele><time>2009-10-13T20:14:53Z</time></trkpt>
<trkpt lat="54.386981" lon="-3.043091"><ele>170</ele><time>2009-10-13T20:15:28Z</time></trkpt>
<trkpt lat="54.387787" lon="-3.041371"><ele>189</ele><time>2009-10-13T20:16:41Z</time></trkpt>
<trkpt lat="54.387282" lon="-3.040511"><ele>203</ele><time>2009-10-13T20:17:37Z</time></trkpt>
<trkpt lat="54.387152" lon="-3.038891"><ele>202</ele><time>2009-10-13T20:18:20Z</time></trkpt>
<trkpt lat="54.387847" lon="-3.037476"><ele>205</ele><time>2009-10-13T20:26:36Z</time></trkpt>
<trkpt lat="54.387747" lon="-3.035580"><ele>204</ele><time>2009-10-13T20:26:59Z</time></trkpt>
<trkpt lat="54.387800" lon="-3.033564"><ele>200</ele><time>2009-10-13T20:27:24Z</time></trkpt>
<trkpt lat="54.388979" lon="-3.032300"><ele>198</ele><time>2009-10-13T20:27:43Z</time></trkpt>
<trkpt lat="54.389503" lon="-3.029849"><ele>199</ele><time>2009-10-13T20:28:04Z</time></trkpt>
<trkpt lat="54.390598" lon="-3.027951"><ele>210</ele><time>2009-10-13T20:28:47Z</time></trkpt>
<trkpt lat="54.391497" lon="-3.026849"><ele>208</ele><time>2009-10-13T20:29:50Z</time></trkpt>
<trkpt lat="54.392268" lon="-3.026083"><ele>211</ele><time>2009-10-13T20:30:51Z</time></trkpt>
<trkpt lat="54.392529" lon="-3.024919"><ele>210</ele><time>2009-10-13T20:31:59Z</time></trkpt>
<trkpt lat="54.392663" lon="-3.023967"><ele>213</ele><time>2009-10-13T20:33:11Z</time></trkpt>
<trkpt lat="54.393546" lon="-3.022680"><ele>211</ele><time>2009-10-13T20:34:03Z</time></trkpt>
<trkpt lat="54.394169" lon="-3.022311"><ele>217</ele><time>2009-10-13T20:34:40Z</time></trkpt>
<trkpt lat="54.395168" lon="-3.022197"><ele>221</ele><time>2009-10-13T20:35:40Z</time></trkpt>
<trkpt lat="54.394786" lon="-3.020539"><ele>210</ele><time>2009-10-13T20:39:43Z</time></trkpt>
<trkpt lat="54.393663" lon="-3.018417"><ele>201</ele><time>2009-10-13T20:40:12Z</time></trkpt>
<trkpt lat="54.392619" lon="-3.018530"><ele>204</ele><time>2009-10-13T20:40:31Z</time></trkpt>
<trkpt lat="54.390137" lon="-3.016543"><ele>183</ele><time>2009-10-13T20:41:08Z</time></trkpt>
<trkpt lat="54.389002" lon="-3.015807"><ele>180</ele><time>2009-10-13T20:41:27Z</time></trkpt>
<trkpt lat="54.387647" lon="-3.015496"><ele>162</ele><time>2009-10-13T20:41:46Z</time></trkpt>
<trkpt lat="54.386516" lon="-3.015345"><ele>151</ele><time>2009-10-13T20:42:14Z</time></trkpt>
<trkpt lat="54.389883" lon="-3.013611"><ele>145</ele><time>2009-10-13T20:43:08Z</time></trkpt>
<trkpt lat="54.391566" lon="-3.013359"><ele>143</ele><time>2009-10-13T20:43:30Z</time></trkpt>
<trkpt lat="54.393720" lon="-3.013782"><ele>137</ele><time>2009-10-13T20:44:00Z</time></trkpt>
<trkpt lat="54.394851" lon="-3.011731"><ele>139</ele><time>2009-10-13T20:44:26Z</time></trkpt>
<trkpt lat="54.396467" lon="-3.008798"><ele>152</ele><time>2009-10-13T20:45:18Z</time></trkpt>
<trkpt lat="54.397586" lon="-3.008255"><ele>155</ele><time>2009-10-13T20:46:03Z</time></trkpt>
<trkpt lat="54.400035" lon="-3.004495"><ele>144</ele><time>2009-10-13T20:46:45Z</time></trkpt>
<trkpt lat="54.401248" lon="-3.003416"><ele>137</ele><time>2009-10-13T20:46:59Z</time></trkpt>
<trkpt lat="54.402463" lon="-3.002105"><ele>138</ele><time>2009-10-13T20:47:16Z</time></trkpt>
<trkpt lat="54.402853" lon="-3.001652"><ele>138</ele><time>2009-10-13T20:47:40Z</time></trkpt>
<trkpt lat="54.404647" lon="-3.003252"><ele>132</ele><time>2009-10-13T21:21:41Z</time></trkpt>
<trkpt lat="54.405863" lon="-3.005007"><ele>116</ele><time>2009-10-13T21:21:57Z</time></trkpt>
<trkpt lat="54.406664" lon="-3.008154"><ele>113</ele><time>2009-10-13T21:22:17Z</time></trkpt>
<trkpt lat="54.408248" lon="-3.007885"><ele>103</ele><time>2009-10-13T21:22:35Z</time></trkpt>
<trkpt lat="54.409497" lon="-3.007977"><ele>105</ele><time>2009-10-13T21:23:00Z</time></trkpt>
<trkpt lat="54.410481" lon="-3.007385"><ele>106</ele><time>2009-10-13T21:23:25Z</time></trkpt>
<trkpt lat="54.412617" lon="-3.005604"><ele>109</ele><time>2009-10-13T21:24:18Z</time></trkpt>
<trkpt lat="54.413815" lon="-3.004200"><ele>113</ele><time>2009-10-13T21:24:37Z</time></trkpt>
<trkpt lat="54.415364" lon="-3.002712"><ele>112</ele><time>2009-10-13T21:25:08Z</time></trkpt>
<trkpt lat="54.416751" lon="-3.002438"><ele>99</ele><time>2009-10-13T21:25:59Z</time></trkpt>
<trkpt lat="54.419769" lon="-2.999337"><ele>86</ele><time>2009-10-13T21:26:54Z</time></trkpt>
<trkpt lat="54.420350" lon="-2.997656"><ele>86</ele><time>2009-10-13T21:27:10Z</time></trkpt>
<trkpt lat="54.421434" lon="-2.995879"><ele>55</ele><time>2009-10-13T21:27:31Z</time></trkpt>
<trkpt lat="54.421786" lon="-2.992373"><ele>58</ele><time>2009-10-13T21:28:00Z</time></trkpt>
<trkpt lat="54.422120" lon="-2.991164"><ele>34</ele><time>2009-10-13T21:28:28Z</time></trkpt>
<trkpt lat="54.421920" lon="-2.989155"><ele>34</ele><time>2009-10-13T21:28:47Z</time></trkpt>
<trkpt lat="54.421232" lon="-2.986488"><ele>49</ele><time>2009-10-13T21:29:12Z</time></trkpt>
<trkpt lat="54.421670" lon="-2.984587"><ele>52</ele><time>2009-10-13T21:29:37Z</time></trkpt>
<trkpt lat="54.421965" lon="-2.982560"><ele>46</ele><time>2009-10-13T21:30:07Z</time></trkpt>
<trkpt lat="54.422213" lon="-2.980778"><ele>40</ele><time>2009-10-13T21:30:29Z</time></trkpt>
<trkpt lat="54.422916" lon="-2.978390"><ele>45</ele><time>2009-10-13T21:31:04Z</time></trkpt>
<trkpt lat="54.423929" lon="-2.975332"><ele>44</ele><time>2009-10-13T21:31:34Z</time></trkpt>
<trkpt lat="54.424264" lon="-2.972827"><ele>47</ele><time>2009-10-13T21:31:53Z</time></trkpt>
<trkpt lat="54.425804" lon="-2.970182"><ele>50</ele><time>2009-10-13T21:32:22Z</time></trkpt>
<trkpt lat="54.426530" lon="-2.969351"><ele>51</ele><time>2009-10-13T21:32:39Z</time></trkpt>
<trkpt lat="54.427652" lon="-2.967235"><ele>52</ele><time>2009-10-13T21:33:12Z</time></trkpt>
<trkpt lat="54.429347" lon="-2.965487"><ele>53</ele><time>2009-10-13T21:33:53Z</time></trkpt>
<trkpt lat="54.430064" lon="-2.964563"><ele>54</ele><time>2009-10-13T21:34:11Z</time></trkpt>
<trkpt lat="54.432520" lon="-2.963203"><ele>62</ele><time>2009-10-13T21:35:11Z</time></trkpt>
<trkpt lat="54.433552" lon="-2.963381"><ele>61</ele><time>2009-10-13T21:35:35Z</time></trkpt>
<trkpt lat="54.433833" lon="-2.964143"><ele>58</ele><time>2009-10-13T21:36:40Z</time></trkpt>
</trkseg>
</trk>

</gpx>
——————————————————————————————————————-

Advertisements

Tags: ,

Leave a Reply

Fill in your details below or click an icon to log in:

WordPress.com Logo

You are commenting using your WordPress.com account. Log Out / Change )

Twitter picture

You are commenting using your Twitter account. Log Out / Change )

Facebook photo

You are commenting using your Facebook account. Log Out / Change )

Google+ photo

You are commenting using your Google+ account. Log Out / Change )

Connecting to %s


%d bloggers like this: